sensor_id;sensor_type;location;lat;lon;timestamp;P1;durP1;ratioP1;P2;durP2;ratioP2
54197;SDS011;40105;52.366;17.000;2023-02-26T00:00:57;2.75;;;1.38;;
54197;SDS011;40105;52.366;17.000;2023-02-26T00:03:22;3.63;;;1.50;;
54197;SDS011;40105;52.366;17.000;2023-02-26T00:05:47;4.03;;;1.77;;
54197;SDS011;40105;52.366;17.000;2023-02-26T00:08:12;6.93;;;1.73;;
54197;SDS011;40105;52.366;17.000;2023-02-26T00:10:37;6.13;;;2.00;;
54197;SDS011;40105;52.366;17.000;2023-02-26T00:13:03;3.27;;;1.60;;
54197;SDS011;40105;52.366;17.000;2023-02-26T00:15:28;7.03;;;1.58;;
54197;SDS011;40105;52.366;17.000;2023-02-26T00:17:55;6.22;;;1.98;;
54197;SDS011;40105;52.366;17.000;2023-02-26T00:20:23;6.80;;;1.30;;
54197;SDS011;40105;52.366;17.000;2023-02-26T00:22:48;5.68;;;1.10;;
54197;SDS011;40105;52.366;17.000;2023-02-26T00:25:13;5.03;;;2.15;;
54197;SDS011;40105;52.366;17.000;2023-02-26T00:27:39;3.77;;;1.40;;
54197;SDS011;40105;52.366;17.000;2023-02-26T00:30:05;7.38;;;1.40;;
54197;SDS011;40105;52.366;17.000;2023-02-26T00:32:30;4.07;;;1.40;;
54197;SDS011;40105;52.366;17.000;2023-02-26T00:34:55;2.00;;;0.95;;
54197;SDS011;40105;52.366;17.000;2023-02-26T00:39:59;5.13;;;1.48;;
54197;SDS011;40105;52.366;17.000;2023-02-26T00:42:26;5.45;;;1.70;;
54197;SDS011;40105;52.366;17.000;2023-02-26T00:44:51;2.83;;;0.85;;
54197;SDS011;40105;52.366;17.000;2023-02-26T00:47:20;3.05;;;1.10;;
54197;SDS011;40105;52.366;17.000;2023-02-26T00:50:01;2.85;;;1.00;;
54197;SDS011;40105;52.366;17.000;2023-02-26T00:52:32;3.58;;;1.00;;
54197;SDS011;40105;52.366;17.000;2023-02-26T00:55:00;5.45;;;1.10;;
54197;SDS011;40105;52.366;17.000;2023-02-26T00:57:25;2.57;;;0.70;;
54197;SDS011;40105;52.366;17.000;2023-02-26T00:59:50;3.00;;;1.17;;
54197;SDS011;40105;52.366;17.000;2023-02-26T01:02:15;4.43;;;1.73;;
54197;SDS011;40105;52.366;17.000;2023-02-26T01:04:40;3.73;;;1.33;;
54197;SDS011;40105;52.366;17.000;2023-02-26T01:07:06;1.45;;;0.75;;
54197;SDS011;40105;52.366;17.000;2023-02-26T01:09:33;6.18;;;0.80;;
54197;SDS011;40105;52.366;17.000;2023-02-26T01:12:01;5.03;;;0.95;;
54197;SDS011;40105;52.366;17.000;2023-02-26T01:14:27;7.00;;;1.40;;
54197;SDS011;40105;52.366;17.000;2023-02-26T01:22:05;1.25;;;0.80;;
54197;SDS011;40105;52.366;17.000;2023-02-26T01:24:32;5.50;;;1.25;;
54197;SDS011;40105;52.366;17.000;2023-02-26T01:26:58;1.08;;;0.50;;
54197;SDS011;40105;52.366;17.000;2023-02-26T01:29:24;3.80;;;0.73;;
54197;SDS011;40105;52.366;17.000;2023-02-26T01:32:00;1.65;;;0.93;;
54197;SDS011;40105;52.366;17.000;2023-02-26T01:34:31;9.82;;;1.35;;
54197;SDS011;40105;52.366;17.000;2023-02-26T01:37:03;4.18;;;0.80;;
54197;SDS011;40105;52.366;17.000;2023-02-26T01:39:36;1.35;;;0.57;;
54197;SDS011;40105;52.366;17.000;2023-02-26T01:44:32;2.73;;;0.57;;
54197;SDS011;40105;52.366;17.000;2023-02-26T01:49:24;2.80;;;0.90;;
54197;SDS011;40105;52.366;17.000;2023-02-26T01:51:54;1.55;;;0.70;;
54197;SDS011;40105;52.366;17.000;2023-02-26T01:54:24;1.27;;;0.65;;
54197;SDS011;40105;52.366;17.000;2023-02-26T01:56:52;4.95;;;1.45;;
54197;SDS011;40105;52.366;17.000;2023-02-26T01:59:20;2.08;;;0.68;;
54197;SDS011;40105;52.366;17.000;2023-02-26T02:01:48;2.08;;;0.88;;
54197;SDS011;40105;52.366;17.000;2023-02-26T02:04:14;0.93;;;0.50;;
54197;SDS011;40105;52.366;17.000;2023-02-26T02:06:40;2.75;;;1.10;;
54197;SDS011;40105;52.366;17.000;2023-02-26T02:09:07;1.13;;;0.77;;
54197;SDS011;40105;52.366;17.000;2023-02-26T02:11:32;1.67;;;0.68;;
54197;SDS011;40105;52.366;17.000;2023-02-26T02:24:34;1.83;;;0.82;;
54197;SDS011;40105;52.366;17.000;2023-02-26T02:27:07;6.43;;;0.70;;
54197;SDS011;40105;52.366;17.000;2023-02-26T02:29:40;3.55;;;1.33;;
54197;SDS011;40105;52.366;17.000;2023-02-26T02:32:11;3.17;;;0.85;;
54197;SDS011;40105;52.366;17.000;2023-02-26T02:34:40;2.05;;;0.75;;
54197;SDS011;40105;52.366;17.000;2023-02-26T02:40:00;3.33;;;1.00;;
54197;SDS011;40105;52.366;17.000;2023-02-26T02:42:37;1.80;;;0.90;;
54197;SDS011;40105;52.366;17.000;2023-02-26T02:45:06;2.70;;;1.05;;
54197;SDS011;40105;52.366;17.000;2023-02-26T02:47:34;2.47;;;0.60;;
54197;SDS011;40105;52.366;17.000;2023-02-26T02:52:27;1.30;;;0.60;;
54197;SDS011;40105;52.366;17.000;2023-02-26T02:57:54;1.17;;;0.40;;
54197;SDS011;40105;52.366;17.000;2023-02-26T03:00:20;7.55;;;1.35;;
54197;SDS011;40105;52.366;17.000;2023-02-26T03:05:14;7.35;;;1.00;;
54197;SDS011;40105;52.366;17.000;2023-02-26T03:07:42;1.58;;;0.68;;
54197;SDS011;40105;52.366;17.000;2023-02-26T03:10:09;0.88;;;0.30;;
54197;SDS011;40105;52.366;17.000;2023-02-26T03:12:35;1.02;;;0.77;;
54197;SDS011;40105;52.366;17.000;2023-02-26T03:15:01;4.05;;;0.82;;
54197;SDS011;40105;52.366;17.000;2023-02-26T03:17:29;4.05;;;0.85;;
54197;SDS011;40105;52.366;17.000;2023-02-26T03:25:06;2.22;;;1.10;;
54197;SDS011;40105;52.366;17.000;2023-02-26T03:27:47;1.75;;;0.75;;
54197;SDS011;40105;52.366;17.000;2023-02-26T03:32:49;3.17;;;0.90;;
54197;SDS011;40105;52.366;17.000;2023-02-26T03:35:17;3.85;;;1.27;;
54197;SDS011;40105;52.366;17.000;2023-02-26T03:37:50;3.72;;;1.17;;
54197;SDS011;40105;52.366;17.000;2023-02-26T03:40:36;2.10;;;0.82;;
54197;SDS011;40105;52.366;17.000;2023-02-26T03:43:09;3.33;;;1.02;;
54197;SDS011;40105;52.366;17.000;2023-02-26T03:45:36;1.60;;;0.88;;
54197;SDS011;40105;52.366;17.000;2023-02-26T03:48:02;2.40;;;1.27;;
54197;SDS011;40105;52.366;17.000;2023-02-26T03:50:42;9.45;;;1.55;;
54197;SDS011;40105;52.366;17.000;2023-02-26T03:53:10;3.03;;;0.65;;
54197;SDS011;40105;52.366;17.000;2023-02-26T03:55:38;1.80;;;0.63;;
54197;SDS011;40105;52.366;17.000;2023-02-26T03:58:05;2.63;;;1.02;;
54197;SDS011;40105;52.366;17.000;2023-02-26T04:00:30;2.08;;;0.90;;
54197;SDS011;40105;52.366;17.000;2023-02-26T04:03:06;11.38;;;1.42;;
54197;SDS011;40105;52.366;17.000;2023-02-26T04:05:34;3.30;;;1.15;;
54197;SDS011;40105;52.366;17.000;2023-02-26T04:08:00;2.60;;;1.08;;
54197;SDS011;40105;52.366;17.000;2023-02-26T04:10:32;4.72;;;1.23;;
54197;SDS011;40105;52.366;17.000;2023-02-26T04:12:58;2.15;;;0.90;;
54197;SDS011;40105;52.366;17.000;2023-02-26T04:15:23;2.67;;;1.23;;
54197;SDS011;40105;52.366;17.000;2023-02-26T04:17:48;3.40;;;0.73;;
54197;SDS011;40105;52.366;17.000;2023-02-26T04:20:14;3.33;;;1.08;;
54197;SDS011;40105;52.366;17.000;2023-02-26T04:22:39;32.55;;;1.55;;
54197;SDS011;40105;52.366;17.000;2023-02-26T04:25:04;4.10;;;0.80;;
54197;SDS011;40105;52.366;17.000;2023-02-26T04:27:29;3.22;;;0.80;;
54197;SDS011;40105;52.366;17.000;2023-02-26T04:29:55;3.10;;;1.00;;
54197;SDS011;40105;52.366;17.000;2023-02-26T04:32:20;6.47;;;0.90;;
54197;SDS011;40105;52.366;17.000;2023-02-26T04:34:45;3.63;;;1.17;;
54197;SDS011;40105;52.366;17.000;2023-02-26T04:37:10;1.50;;;0.60;;
54197;SDS011;40105;52.366;17.000;2023-02-26T04:39:35;3.33;;;1.20;;
54197;SDS011;40105;52.366;17.000;2023-02-26T04:42:00;2.40;;;1.00;;
54197;SDS011;40105;52.366;17.000;2023-02-26T04:44:26;3.28;;;1.15;;
54197;SDS011;40105;52.366;17.000;2023-02-26T04:46:52;2.47;;;0.93;;
54197;SDS011;40105;52.366;17.000;2023-02-26T04:49:17;3.37;;;1.37;;
54197;SDS011;40105;52.366;17.000;2023-02-26T04:51:42;7.60;;;1.27;;
54197;SDS011;40105;52.366;17.000;2023-02-26T04:54:07;2.33;;;1.73;;
54197;SDS011;40105;52.366;17.000;2023-02-26T04:56:32;0.83;;;0.40;;
54197;SDS011;40105;52.366;17.000;2023-02-26T04:58:57;1.93;;;0.93;;
54197;SDS011;40105;52.366;17.000;2023-02-26T05:01:23;3.20;;;0.97;;
54197;SDS011;40105;52.366;17.000;2023-02-26T05:03:48;4.03;;;0.80;;
54197;SDS011;40105;52.366;17.000;2023-02-26T05:06:13;3.07;;;1.03;;
54197;SDS011;40105;52.366;17.000;2023-02-26T05:08:38;5.43;;;1.53;;
54197;SDS011;40105;52.366;17.000;2023-02-26T05:11:06;1.20;;;0.57;;
54197;SDS011;40105;52.366;17.000;2023-02-26T05:13:31;5.63;;;1.37;;
54197;SDS011;40105;52.366;17.000;2023-02-26T05:15:57;2.03;;;0.87;;
54197;SDS011;40105;52.366;17.000;2023-02-26T05:18:22;3.23;;;1.30;;
54197;SDS011;40105;52.366;17.000;2023-02-26T05:20:52;5.50;;;1.33;;
54197;SDS011;40105;52.366;17.000;2023-02-26T05:23:17;1.85;;;0.90;;
54197;SDS011;40105;52.366;17.000;2023-02-26T05:25:42;2.63;;;1.20;;
54197;SDS011;40105;52.366;17.000;2023-02-26T05:28:07;1.60;;;0.55;;
54197;SDS011;40105;52.366;17.000;2023-02-26T05:30:33;4.73;;;2.00;;
54197;SDS011;40105;52.366;17.000;2023-02-26T05:32:58;1.15;;;0.60;;
54197;SDS011;40105;52.366;17.000;2023-02-26T05:35:23;3.43;;;1.70;;
54197;SDS011;40105;52.366;17.000;2023-02-26T05:37:48;3.57;;;1.03;;
54197;SDS011;40105;52.366;17.000;2023-02-26T05:40:13;1.48;;;0.90;;
54197;SDS011;40105;52.366;17.000;2023-02-26T05:42:39;10.90;;;1.80;;
54197;SDS011;40105;52.366;17.000;2023-02-26T05:45:04;1.80;;;0.90;;
54197;SDS011;40105;52.366;17.000;2023-02-26T05:47:31;1.30;;;0.68;;
54197;SDS011;40105;52.366;17.000;2023-02-26T05:49:56;3.35;;;1.63;;
54197;SDS011;40105;52.366;17.000;2023-02-26T05:52:21;2.88;;;0.93;;
54197;SDS011;40105;52.366;17.000;2023-02-26T05:54:46;2.03;;;1.05;;
54197;SDS011;40105;52.366;17.000;2023-02-26T05:57:11;2.03;;;0.70;;
54197;SDS011;40105;52.366;17.000;2023-02-26T05:59:37;3.30;;;0.73;;
54197;SDS011;40105;52.366;17.000;2023-02-26T06:02:03;2.53;;;0.63;;
54197;SDS011;40105;52.366;17.000;2023-02-26T06:04:28;2.90;;;1.07;;
54197;SDS011;40105;52.366;17.000;2023-02-26T06:06:53;1.53;;;0.77;;
54197;SDS011;40105;52.366;17.000;2023-02-26T06:09:18;1.50;;;0.82;;
54197;SDS011;40105;52.366;17.000;2023-02-26T06:11:44;9.77;;;4.30;;
54197;SDS011;40105;52.366;17.000;2023-02-26T06:14:09;5.00;;;2.13;;
54197;SDS011;40105;52.366;17.000;2023-02-26T06:16:34;20.30;;;4.03;;
54197;SDS011;40105;52.366;17.000;2023-02-26T06:18:59;5.93;;;1.45;;
54197;SDS011;40105;52.366;17.000;2023-02-26T06:21:25;7.22;;;2.17;;
54197;SDS011;40105;52.366;17.000;2023-02-26T06:23:50;2.80;;;1.03;;
54197;SDS011;40105;52.366;17.000;2023-02-26T06:26:15;6.80;;;1.70;;
54197;SDS011;40105;52.366;17.000;2023-02-26T06:28:40;5.83;;;1.50;;
54197;SDS011;40105;52.366;17.000;2023-02-26T06:31:06;12.87;;;1.50;;
54197;SDS011;40105;52.366;17.000;2023-02-26T06:33:31;3.33;;;1.70;;
54197;SDS011;40105;52.366;17.000;2023-02-26T06:35:56;12.77;;;1.10;;
54197;SDS011;40105;52.366;17.000;2023-02-26T06:38:23;8.15;;;1.00;;
54197;SDS011;40105;52.366;17.000;2023-02-26T06:40:48;8.83;;;2.13;;
54197;SDS011;40105;52.366;17.000;2023-02-26T06:43:13;2.97;;;1.33;;
54197;SDS011;40105;52.366;17.000;2023-02-26T06:45:38;16.23;;;3.57;;
54197;SDS011;40105;52.366;17.000;2023-02-26T06:48:04;8.43;;;2.00;;
54197;SDS011;40105;52.366;17.000;2023-02-26T06:50:29;1.63;;;0.90;;
54197;SDS011;40105;52.366;17.000;2023-02-26T06:52:55;2.88;;;1.38;;
54197;SDS011;40105;52.366;17.000;2023-02-26T06:55:20;7.03;;;0.85;;
54197;SDS011;40105;52.366;17.000;2023-02-26T06:57:46;2.10;;;1.00;;
54197;SDS011;40105;52.366;17.000;2023-02-26T07:00:11;3.42;;;1.20;;
54197;SDS011;40105;52.366;17.000;2023-02-26T07:02:36;10.27;;;1.10;;
54197;SDS011;40105;52.366;17.000;2023-02-26T07:05:02;5.80;;;1.17;;
54197;SDS011;40105;52.366;17.000;2023-02-26T07:07:27;5.53;;;1.17;;
54197;SDS011;40105;52.366;17.000;2023-02-26T07:09:52;5.07;;;1.40;;
54197;SDS011;40105;52.366;17.000;2023-02-26T07:12:17;4.50;;;0.90;;
54197;SDS011;40105;52.366;17.000;2023-02-26T07:14:42;4.70;;;1.80;;
54197;SDS011;40105;52.366;17.000;2023-02-26T07:17:09;3.30;;;1.15;;
54197;SDS011;40105;52.366;17.000;2023-02-26T07:19:43;2.65;;;1.10;;
54197;SDS011;40105;52.366;17.000;2023-02-26T07:22:08;4.77;;;2.33;;
54197;SDS011;40105;52.366;17.000;2023-02-26T07:24:33;1.87;;;1.00;;
54197;SDS011;40105;52.366;17.000;2023-02-26T07:26:58;7.20;;;1.97;;
54197;SDS011;40105;52.366;17.000;2023-02-26T07:29:24;3.13;;;1.40;;
54197;SDS011;40105;52.366;17.000;2023-02-26T07:31:49;1.67;;;1.20;;
54197;SDS011;40105;52.366;17.000;2023-02-26T07:34:14;11.27;;;1.07;;
54197;SDS011;40105;52.366;17.000;2023-02-26T07:36:39;10.53;;;1.17;;
54197;SDS011;40105;52.366;17.000;2023-02-26T07:39:04;5.03;;;1.73;;
54197;SDS011;40105;52.366;17.000;2023-02-26T07:41:29;8.63;;;2.03;;
54197;SDS011;40105;52.366;17.000;2023-02-26T07:43:55;3.03;;;1.37;;
54197;SDS011;40105;52.366;17.000;2023-02-26T07:46:20;6.20;;;2.10;;
54197;SDS011;40105;52.366;17.000;2023-02-26T07:48:45;3.90;;;1.37;;
54197;SDS011;40105;52.366;17.000;2023-02-26T07:51:10;17.70;;;5.78;;
54197;SDS011;40105;52.366;17.000;2023-02-26T07:53:35;37.13;;;16.50;;
54197;SDS011;40105;52.366;17.000;2023-02-26T07:56:00;19.10;;;10.03;;
54197;SDS011;40105;52.366;17.000;2023-02-26T07:58:25;14.20;;;5.70;;
54197;SDS011;40105;52.366;17.000;2023-02-26T08:00:51;4.83;;;1.87;;
54197;SDS011;40105;52.366;17.000;2023-02-26T08:03:16;37.50;;;16.70;;
54197;SDS011;40105;52.366;17.000;2023-02-26T08:05:42;14.85;;;8.10;;
54197;SDS011;40105;52.366;17.000;2023-02-26T08:08:07;24.90;;;9.30;;
54197;SDS011;40105;52.366;17.000;2023-02-26T08:10:32;29.43;;;13.70;;
54197;SDS011;40105;52.366;17.000;2023-02-26T08:12:57;6.83;;;3.33;;
54197;SDS011;40105;52.366;17.000;2023-02-26T08:15:22;27.00;;;10.70;;
54197;SDS011;40105;52.366;17.000;2023-02-26T08:17:50;5.07;;;2.40;;
54197;SDS011;40105;52.366;17.000;2023-02-26T08:20:15;35.60;;;14.30;;
54197;SDS011;40105;52.366;17.000;2023-02-26T08:22:40;23.00;;;10.03;;
54197;SDS011;40105;52.366;17.000;2023-02-26T08:25:06;14.37;;;4.67;;
54197;SDS011;40105;52.366;17.000;2023-02-26T08:27:31;8.40;;;4.72;;
54197;SDS011;40105;52.366;17.000;2023-02-26T08:29:57;9.15;;;3.80;;
54197;SDS011;40105;52.366;17.000;2023-02-26T08:32:22;8.97;;;2.93;;
54197;SDS011;40105;52.366;17.000;2023-02-26T08:34:47;3.77;;;1.67;;
54197;SDS011;40105;52.366;17.000;2023-02-26T08:37:12;11.18;;;5.80;;
54197;SDS011;40105;52.366;17.000;2023-02-26T08:39:38;11.75;;;3.28;;
54197;SDS011;40105;52.366;17.000;2023-02-26T08:42:04;12.43;;;2.73;;
54197;SDS011;40105;52.366;17.000;2023-02-26T08:44:29;3.80;;;1.33;;
54197;SDS011;40105;52.366;17.000;2023-02-26T08:46:54;16.43;;;1.57;;
54197;SDS011;40105;52.366;17.000;2023-02-26T08:49:20;12.30;;;1.75;;
54197;SDS011;40105;52.366;17.000;2023-02-26T08:51:45;14.00;;;6.27;;
54197;SDS011;40105;52.366;17.000;2023-02-26T08:54:10;15.50;;;3.53;;
54197;SDS011;40105;52.366;17.000;2023-02-26T08:56:36;10.07;;;2.40;;
54197;SDS011;40105;52.366;17.000;2023-02-26T08:59:02;4.68;;;1.73;;
54197;SDS011;40105;52.366;17.000;2023-02-26T09:01:27;4.70;;;1.88;;
54197;SDS011;40105;52.366;17.000;2023-02-26T09:03:53;8.00;;;2.00;;
54197;SDS011;40105;52.366;17.000;2023-02-26T09:06:18;13.10;;;2.50;;
54197;SDS011;40105;52.366;17.000;2023-02-26T09:08:43;7.80;;;2.70;;
54197;SDS011;40105;52.366;17.000;2023-02-26T09:11:08;12.47;;;2.47;;
54197;SDS011;40105;52.366;17.000;2023-02-26T09:13:34;11.65;;;2.70;;
54197;SDS011;40105;52.366;17.000;2023-02-26T09:15:59;15.70;;;5.50;;
54197;SDS011;40105;52.366;17.000;2023-02-26T09:18:24;18.27;;;4.07;;
54197;SDS011;40105;52.366;17.000;2023-02-26T09:20:49;11.07;;;4.00;;
54197;SDS011;40105;52.366;17.000;2023-02-26T09:23:15;12.97;;;4.57;;
54197;SDS011;40105;52.366;17.000;2023-02-26T09:25:40;22.30;;;8.43;;
54197;SDS011;40105;52.366;17.000;2023-02-26T09:28:05;20.57;;;5.27;;
54197;SDS011;40105;52.366;17.000;2023-02-26T09:30:30;20.47;;;6.23;;
54197;SDS011;40105;52.366;17.000;2023-02-26T09:32:55;15.67;;;4.60;;
54197;SDS011;40105;52.366;17.000;2023-02-26T09:35:20;14.65;;;2.80;;
54197;SDS011;40105;52.366;17.000;2023-02-26T09:37:46;14.40;;;3.85;;
54197;SDS011;40105;52.366;17.000;2023-02-26T09:40:18;12.07;;;2.77;;
54197;SDS011;40105;52.366;17.000;2023-02-26T09:45:18;10.80;;;2.15;;
54197;SDS011;40105;52.366;17.000;2023-02-26T09:47:46;15.88;;;2.05;;
54197;SDS011;40105;52.366;17.000;2023-02-26T09:50:21;8.63;;;2.33;;
54197;SDS011;40105;52.366;17.000;2023-02-26T09:53:01;9.10;;;2.25;;
54197;SDS011;40105;52.366;17.000;2023-02-26T09:55:29;3.40;;;1.52;;
54197;SDS011;40105;52.366;17.000;2023-02-26T09:57:59;8.80;;;2.47;;
54197;SDS011;40105;52.366;17.000;2023-02-26T10:03:05;22.90;;;10.55;;
54197;SDS011;40105;52.366;17.000;2023-02-26T10:05:38;13.60;;;7.27;;
54197;SDS011;40105;52.366;17.000;2023-02-26T10:08:15;10.00;;;2.60;;
54197;SDS011;40105;52.366;17.000;2023-02-26T10:10:47;11.73;;;5.05;;
54197;SDS011;40105;52.366;17.000;2023-02-26T10:15:51;33.28;;;16.88;;
54197;SDS011;40105;52.366;17.000;2023-02-26T10:18:22;39.83;;;20.33;;
54197;SDS011;40105;52.366;17.000;2023-02-26T10:26:03;9.32;;;3.58;;
54197;SDS011;40105;52.366;17.000;2023-02-26T10:28:33;14.10;;;4.97;;
54197;SDS011;40105;52.366;17.000;2023-02-26T10:31:02;13.80;;;5.83;;
54197;SDS011;40105;52.366;17.000;2023-02-26T10:33:32;10.75;;;4.47;;
54197;SDS011;40105;52.366;17.000;2023-02-26T10:39:00;13.23;;;5.80;;
54197;SDS011;40105;52.366;17.000;2023-02-26T10:41:26;10.63;;;4.05;;
54197;SDS011;40105;52.366;17.000;2023-02-26T10:43:57;12.57;;;4.00;;
54197;SDS011;40105;52.366;17.000;2023-02-26T10:51:42;15.13;;;5.28;;
54197;SDS011;40105;52.366;17.000;2023-02-26T10:54:14;19.58;;;8.40;;
54197;SDS011;40105;52.366;17.000;2023-02-26T10:56:40;8.18;;;2.88;;
54197;SDS011;40105;52.366;17.000;2023-02-26T10:59:06;6.90;;;1.38;;
54197;SDS011;40105;52.366;17.000;2023-02-26T11:01:31;16.90;;;6.03;;
54197;SDS011;40105;52.366;17.000;2023-02-26T11:04:00;8.70;;;3.33;;
54197;SDS011;40105;52.366;17.000;2023-02-26T11:06:28;7.32;;;2.15;;
54197;SDS011;40105;52.366;17.000;2023-02-26T11:08:54;9.75;;;4.63;;
54197;SDS011;40105;52.366;17.000;2023-02-26T11:14:04;11.95;;;3.88;;
54197;SDS011;40105;52.366;17.000;2023-02-26T11:16:29;16.37;;;5.90;;
54197;SDS011;40105;52.366;17.000;2023-02-26T11:18:54;12.20;;;4.97;;
54197;SDS011;40105;52.366;17.000;2023-02-26T11:21:26;41.65;;;16.73;;
54197;SDS011;40105;52.366;17.000;2023-02-26T11:23:54;41.60;;;10.48;;
54197;SDS011;40105;52.366;17.000;2023-02-26T11:26:24;4.95;;;2.45;;
54197;SDS011;40105;52.366;17.000;2023-02-26T11:28:50;13.38;;;3.78;;
54197;SDS011;40105;52.366;17.000;2023-02-26T11:31:19;6.70;;;2.78;;
54197;SDS011;40105;52.366;17.000;2023-02-26T11:33:47;12.50;;;2.67;;
54197;SDS011;40105;52.366;17.000;2023-02-26T11:36:14;25.15;;;9.25;;
54197;SDS011;40105;52.366;17.000;2023-02-26T11:38:43;11.13;;;4.10;;
54197;SDS011;40105;52.366;17.000;2023-02-26T11:41:10;15.30;;;4.78;;
54197;SDS011;40105;52.366;17.000;2023-02-26T11:43:39;17.45;;;3.92;;
54197;SDS011;40105;52.366;17.000;2023-02-26T11:46:06;17.50;;;3.70;;
54197;SDS011;40105;52.366;17.000;2023-02-26T11:48:38;7.25;;;2.53;;
54197;SDS011;40105;52.366;17.000;2023-02-26T11:51:03;7.93;;;1.58;;
54197;SDS011;40105;52.366;17.000;2023-02-26T11:53:48;4.88;;;1.67;;
54197;SDS011;40105;52.366;17.000;2023-02-26T11:56:19;15.18;;;5.05;;
54197;SDS011;40105;52.366;17.000;2023-02-26T11:58:49;6.60;;;2.55;;
54197;SDS011;40105;52.366;17.000;2023-02-26T12:01:15;3.75;;;1.70;;
54197;SDS011;40105;52.366;17.000;2023-02-26T12:03:43;10.80;;;3.05;;
54197;SDS011;40105;52.366;17.000;2023-02-26T12:06:17;9.23;;;3.53;;
54197;SDS011;40105;52.366;17.000;2023-02-26T12:08:43;9.23;;;3.28;;
54197;SDS011;40105;52.366;17.000;2023-02-26T12:11:34;7.40;;;2.63;;
54197;SDS011;40105;52.366;17.000;2023-02-26T12:14:06;4.07;;;2.00;;
54197;SDS011;40105;52.366;17.000;2023-02-26T12:19:00;17.35;;;6.53;;
54197;SDS011;40105;52.366;17.000;2023-02-26T12:21:30;15.32;;;5.82;;
54197;SDS011;40105;52.366;17.000;2023-02-26T12:24:09;9.02;;;3.30;;
54197;SDS011;40105;52.366;17.000;2023-02-26T12:26:46;10.50;;;3.85;;
54197;SDS011;40105;52.366;17.000;2023-02-26T12:42:31;5.40;;;2.67;;
54197;SDS011;40105;52.366;17.000;2023-02-26T12:45:06;13.43;;;3.63;;
54197;SDS011;40105;52.366;17.000;2023-02-26T12:47:48;14.80;;;4.53;;
54197;SDS011;40105;52.366;17.000;2023-02-26T12:50:25;12.57;;;2.03;;
54197;SDS011;40105;52.366;17.000;2023-02-26T12:55:22;40.10;;;14.88;;
54197;SDS011;40105;52.366;17.000;2023-02-26T12:57:56;26.02;;;6.63;;
54197;SDS011;40105;52.366;17.000;2023-02-26T13:00:37;3.90;;;2.42;;
54197;SDS011;40105;52.366;17.000;2023-02-26T13:08:20;10.98;;;3.63;;
54197;SDS011;40105;52.366;17.000;2023-02-26T13:10:56;13.25;;;4.28;;
54197;SDS011;40105;52.366;17.000;2023-02-26T13:18:48;21.60;;;4.97;;
54197;SDS011;40105;52.366;17.000;2023-02-26T13:21:17;12.38;;;2.67;;
54197;SDS011;40105;52.366;17.000;2023-02-26T13:23:50;8.02;;;2.65;;
54197;SDS011;40105;52.366;17.000;2023-02-26T13:26:16;10.43;;;3.08;;
54197;SDS011;40105;52.366;17.000;2023-02-26T13:31:28;5.50;;;2.03;;
54197;SDS011;40105;52.366;17.000;2023-02-26T13:33:55;17.77;;;4.95;;
54197;SDS011;40105;52.366;17.000;2023-02-26T13:36:23;8.85;;;2.92;;
54197;SDS011;40105;52.366;17.000;2023-02-26T13:44:16;6.40;;;2.58;;
54197;SDS011;40105;52.366;17.000;2023-02-26T13:46:54;20.83;;;7.72;;
54197;SDS011;40105;52.366;17.000;2023-02-26T13:49:30;25.48;;;6.07;;
54197;SDS011;40105;52.366;17.000;2023-02-26T13:51:58;7.25;;;3.35;;
54197;SDS011;40105;52.366;17.000;2023-02-26T13:56:52;8.32;;;2.40;;
54197;SDS011;40105;52.366;17.000;2023-02-26T14:02:29;11.50;;;3.83;;
54197;SDS011;40105;52.366;17.000;2023-02-26T14:04:51;74.53;;;23.08;;
54197;SDS011;40105;52.366;17.000;2023-02-26T14:07:26;54.83;;;16.85;;
54197;SDS011;40105;52.366;17.000;2023-02-26T14:10:03;31.05;;;9.77;;
54197;SDS011;40105;52.366;17.000;2023-02-26T14:12:41;17.45;;;7.07;;
54197;SDS011;40105;52.366;17.000;2023-02-26T14:15:17;11.35;;;3.90;;
54197;SDS011;40105;52.366;17.000;2023-02-26T14:17:47;24.05;;;11.05;;
54197;SDS011;40105;52.366;17.000;2023-02-26T14:22:40;16.92;;;5.57;;
54197;SDS011;40105;52.366;17.000;2023-02-26T14:27:36;13.27;;;4.22;;
54197;SDS011;40105;52.366;17.000;2023-02-26T14:35:23;9.18;;;2.97;;
54197;SDS011;40105;52.366;17.000;2023-02-26T14:38:05;21.60;;;7.03;;
54197;SDS011;40105;52.366;17.000;2023-02-26T14:40:35;13.45;;;5.45;;
54197;SDS011;40105;52.366;17.000;2023-02-26T14:43:03;13.35;;;5.85;;
54197;SDS011;40105;52.366;17.000;2023-02-26T14:45:37;12.93;;;4.05;;
54197;SDS011;40105;52.366;17.000;2023-02-26T14:48:03;20.00;;;6.88;;
54197;SDS011;40105;52.366;17.000;2023-02-26T14:53:22;12.82;;;6.82;;
54197;SDS011;40105;52.366;17.000;2023-02-26T14:58:29;11.02;;;4.78;;
54197;SDS011;40105;52.366;17.000;2023-02-26T15:08:55;21.67;;;7.63;;
54197;SDS011;40105;52.366;17.000;2023-02-26T15:13:54;6.80;;;2.60;;
54197;SDS011;40105;52.366;17.000;2023-02-26T15:19:04;21.08;;;6.43;;
54197;SDS011;40105;52.366;17.000;2023-02-26T15:21:44;18.70;;;7.60;;
54197;SDS011;40105;52.366;17.000;2023-02-26T15:24:12;28.05;;;6.82;;
54197;SDS011;40105;52.366;17.000;2023-02-26T15:26:42;10.85;;;2.72;;
54197;SDS011;40105;52.366;17.000;2023-02-26T15:29:09;13.73;;;5.22;;
54197;SDS011;40105;52.366;17.000;2023-02-26T15:31:36;36.35;;;7.90;;
54197;SDS011;40105;52.366;17.000;2023-02-26T15:34:04;14.98;;;4.45;;
54197;SDS011;40105;52.366;17.000;2023-02-26T15:36:29;23.20;;;6.57;;
54197;SDS011;40105;52.366;17.000;2023-02-26T15:38:58;31.65;;;9.30;;
54197;SDS011;40105;52.366;17.000;2023-02-26T15:41:25;26.00;;;9.60;;
54197;SDS011;40105;52.366;17.000;2023-02-26T15:43:52;35.35;;;11.80;;
54197;SDS011;40105;52.366;17.000;2023-02-26T15:46:19;49.63;;;23.27;;
54197;SDS011;40105;52.366;17.000;2023-02-26T15:48:47;36.92;;;18.63;;
54197;SDS011;40105;52.366;17.000;2023-02-26T15:51:12;14.57;;;6.73;;
54197;SDS011;40105;52.366;17.000;2023-02-26T15:53:40;16.50;;;5.40;;
54197;SDS011;40105;52.366;17.000;2023-02-26T15:56:07;13.98;;;4.63;;
54197;SDS011;40105;52.366;17.000;2023-02-26T15:58:39;9.65;;;4.80;;
54197;SDS011;40105;52.366;17.000;2023-02-26T16:01:05;12.68;;;6.25;;
54197;SDS011;40105;52.366;17.000;2023-02-26T16:03:32;13.60;;;4.78;;
54197;SDS011;40105;52.366;17.000;2023-02-26T16:05:58;13.80;;;5.57;;
54197;SDS011;40105;52.366;17.000;2023-02-26T16:08:24;9.60;;;4.05;;
54197;SDS011;40105;52.366;17.000;2023-02-26T16:10:50;30.38;;;8.65;;
54197;SDS011;40105;52.366;17.000;2023-02-26T16:13:16;17.67;;;7.30;;
54197;SDS011;40105;52.366;17.000;2023-02-26T16:15:46;21.95;;;6.22;;
54197;SDS011;40105;52.366;17.000;2023-02-26T16:18:15;16.52;;;5.38;;
54197;SDS011;40105;52.366;17.000;2023-02-26T16:20:43;23.77;;;7.70;;
54197;SDS011;40105;52.366;17.000;2023-02-26T16:23:13;33.70;;;13.77;;
54197;SDS011;40105;52.366;17.000;2023-02-26T16:25:40;25.10;;;10.77;;
54197;SDS011;40105;52.366;17.000;2023-02-26T16:28:14;20.55;;;8.55;;
54197;SDS011;40105;52.366;17.000;2023-02-26T16:30:42;24.15;;;7.95;;
54197;SDS011;40105;52.366;17.000;2023-02-26T16:33:12;14.27;;;4.97;;
54197;SDS011;40105;52.366;17.000;2023-02-26T16:35:38;32.13;;;10.75;;
54197;SDS011;40105;52.366;17.000;2023-02-26T16:38:11;37.30;;;11.98;;
54197;SDS011;40105;52.366;17.000;2023-02-26T16:40:39;21.52;;;9.45;;
54197;SDS011;40105;52.366;17.000;2023-02-26T16:43:05;19.75;;;6.15;;
54197;SDS011;40105;52.366;17.000;2023-02-26T16:45:51;27.85;;;11.80;;
54197;SDS011;40105;52.366;17.000;2023-02-26T16:48:29;25.15;;;10.02;;